Time;durP1;ratioP1;P1;durP2;ratioP2;P2;SDS_P1;SDS_P2;PMS_P1;PMS_P2;Temp;Humidity;BMP_temperature;BMP_pressure;BME280_temperature;BME280_humidity;BME280_pressure;Samples;Min_cycle;Max_cycle;Signal;HPM_P1;HPM_P2
2024/03/06 00:00:07;;;;;;;4.70;4.30;;;7.90;1.00;;;;;;5061158;28;20451;-81
2024/03/06 00:02:36;;;;;;;4.73;4.33;;;8.00;1.00;;;;;;5058619;28;20442;-81
2024/03/06 00:05:04;;;;;;;4.40;4.00;;;8.00;1.00;;;;;;5064227;28;20455;-80
2024/03/06 00:07:33;;;;;;;4.57;4.27;;;8.00;1.00;;;;;;5063354;28;21215;-79
2024/03/06 00:10:04;;;;;;;4.23;3.93;;;8.00;1.00;;;;;;5057316;28;20481;-77
2024/03/06 00:12:33;;;;;;;4.50;4.10;;;8.00;1.00;;;;;;5057804;28;20481;-79
2024/03/06 00:15:02;;;;;;;4.43;4.03;;;7.90;1.00;;;;;;5062790;28;21380;-84
2024/03/06 00:17:30;;;;;;;4.90;4.50;;;8.00;1.00;;;;;;5058904;28;20479;-79
2024/03/06 00:19:58;;;;;;;4.50;4.10;;;8.00;1.00;;;;;;5060729;28;20829;-79
2024/03/06 00:22:27;;;;;;;4.27;3.97;;;8.00;1.00;;;;;;5057529;28;20508;-79
2024/03/06 00:24:55;;;;;;;4.70;4.30;;;8.00;1.00;;;;;;5064272;28;20498;-81
2024/03/06 00:27:25;;;;;;;3.93;3.70;;;8.10;1.00;;;;;;5060111;28;20489;-83
2024/03/06 00:29:53;;;;;;;4.60;4.30;;;8.10;1.00;;;;;;5065501;28;20458;-82
2024/03/06 00:32:23;;;;;;;4.03;3.73;;;8.00;1.00;;;;;;5059616;28;21159;-82
2024/03/06 00:34:51;;;;;;;4.27;3.87;;;8.00;1.00;;;;;;5064470;28;20475;-81
2024/03/06 00:37:20;;;;;;;4.03;3.83;;;8.00;1.00;;;;;;5056864;28;20473;-79
2024/03/06 00:39:48;;;;;;;4.07;3.87;;;8.00;1.00;;;;;;5060816;28;20450;-83
2024/03/06 00:42:16;;;;;;;5.63;3.73;;;8.00;1.00;;;;;;5059677;28;20500;-81
2024/03/06 00:44:46;;;;;;;6.07;5.60;;;7.90;1.00;;;;;;5062062;28;20509;-82
2024/03/06 00:47:14;;;;;;;4.87;4.57;;;7.90;1.00;;;;;;5058487;28;20560;-81
2024/03/06 00:49:43;;;;;;;4.73;4.43;;;7.80;1.00;;;;;;5059111;28;20465;-80
2024/03/06 00:52:11;;;;;;;4.67;4.27;;;7.90;1.00;;;;;;5056200;28;20458;-81
2024/03/06 00:54:39;;;;;;;4.33;3.93;;;7.90;1.00;;;;;;5060543;28;20472;-82
2024/03/06 00:57:08;;;;;;;4.60;4.30;;;7.90;1.00;;;;;;5056412;28;20480;-81
2024/03/06 00:59:36;;;;;;;5.07;4.30;;;7.90;1.00;;;;;;5061991;28;20447;-81
2024/03/06 01:02:06;;;;;;;4.37;3.73;;;8.00;1.00;;;;;;5063169;28;20450;-82
2024/03/06 01:04:34;;;;;;;4.57;4.27;;;7.90;1.00;;;;;;5062558;28;21048;-84
2024/03/06 01:07:03;;;;;;;3.97;3.67;;;7.90;1.00;;;;;;5058680;28;20995;-83
2024/03/06 01:09:31;;;;;;;4.80;4.50;;;8.00;1.00;;;;;;5058314;28;20479;-83
2024/03/06 01:11:59;;;;;;;5.13;4.70;;;7.90;1.00;;;;;;5059528;28;20516;-82
2024/03/06 01:14:27;;;;;;;3.97;3.67;;;8.00;1.00;;;;;;5060540;28;20458;-81
2024/03/06 01:16:56;;;;;;;3.90;3.60;;;8.00;1.00;;;;;;5061676;28;20468;-79
2024/03/06 01:19:25;;;;;;;4.00;3.70;;;7.90;1.00;;;;;;5063279;28;20458;-81
2024/03/06 01:21:54;;;;;;;4.30;3.90;;;7.80;1.00;;;;;;5064722;28;20818;-81
2024/03/06 01:24:22;;;;;;;4.57;4.27;;;7.80;1.00;;;;;;5064711;28;20442;-81
2024/03/06 01:26:51;;;;;;;3.50;3.30;;;7.80;1.00;;;;;;5060909;28;20520;-79
2024/03/06 01:29:19;;;;;;;4.10;3.80;;;7.70;1.00;;;;;;5057128;28;20633;-80
2024/03/06 01:31:47;;;;;;;3.57;3.37;;;7.60;1.00;;;;;;5059151;28;20451;-79
2024/03/06 01:34:16;;;;;;;3.10;3.00;;;7.70;1.00;;;;;;5062285;28;20447;-82
2024/03/06 01:36:45;;;;;;;4.87;4.03;;;7.70;1.00;;;;;;5059116;28;20464;-81
2024/03/06 01:39:14;;;;;;;4.00;3.70;;;7.70;1.00;;;;;;5059649;28;20905;-81
2024/03/06 01:41:46;;;;;;;4.30;3.80;;;7.80;1.00;;;;;;5062066;28;20487;-82
2024/03/06 01:44:15;;;;;;;4.37;3.60;;;7.80;1.00;;;;;;5059772;28;20439;-80
2024/03/06 01:46:44;;;;;;;3.33;3.20;;;7.90;1.00;;;;;;5060739;28;20480;-80
2024/03/06 01:49:15;;;;;;;5.57;5.17;;;7.90;1.00;;;;;;5054356;28;21029;-80
2024/03/06 01:52:02;;;;;;;3.87;3.50;;;7.90;1.00;;;;;;5064847;28;20531;-80
2024/03/06 01:54:32;;;;;;;3.33;3.13;;;7.80;1.00;;;;;;5055842;28;20437;-82
2024/03/06 01:57:02;;;;;;;3.70;3.50;;;7.70;1.00;;;;;;5056347;28;20480;-79
2024/03/06 01:59:31;;;;;;;3.97;3.57;;;7.70;1.00;;;;;;5059474;28;21079;-83
2024/03/06 02:02:04;;;;;;;3.03;2.90;;;7.70;1.00;;;;;;5060698;28;20820;-81
2024/03/06 02:04:33;;;;;;;3.93;3.63;;;7.70;1.00;;;;;;5061871;28;20441;-80
2024/03/06 02:07:04;;;;;;;4.00;3.70;;;7.70;1.00;;;;;;5055064;28;20492;-79
2024/03/06 02:09:32;;;;;;;3.40;3.10;;;7.80;1.00;;;;;;5057539;28;20465;-79
2024/03/06 02:12:00;;;;;;;3.33;3.13;;;7.80;1.00;;;;;;5056203;28;20461;-79
2024/03/06 02:14:29;;;;;;;4.07;3.77;;;7.80;1.00;;;;;;5061751;28;20458;-79
2024/03/06 02:16:58;;;;;;;3.90;3.43;;;7.90;1.00;;;;;;5058688;28;20472;-77
2024/03/06 02:19:38;;;;;;;3.50;3.03;;;7.70;1.00;;;;;;5057609;28;20481;-79
2024/03/06 02:22:08;;;;;;;3.90;3.53;;;7.70;1.00;;;;;;5052617;28;20483;-79
2024/03/06 02:24:37;;;;;;;3.40;3.10;;;7.70;1.00;;;;;;5055598;28;20437;-78
2024/03/06 02:27:06;;;;;;;3.90;3.60;;;7.80;1.00;;;;;;5055573;28;20467;-85
2024/03/06 02:29:34;;;;;;;3.30;3.10;;;7.80;1.00;;;;;;5057679;28;20512;-79
2024/03/06 02:32:03;;;;;;;3.60;3.20;;;7.80;1.00;;;;;;5054644;28;20450;-77
2024/03/06 02:34:31;;;;;;;3.00;2.80;;;7.80;1.00;;;;;;5057275;28;20469;-81
2024/03/06 02:36:59;;;;;;;3.20;3.10;;;7.90;1.00;;;;;;5055624;28;21039;-80
2024/03/06 02:39:29;;;;;;;3.20;3.00;;;7.90;1.00;;;;;;5059133;28;20445;-80
2024/03/06 02:41:57;;;;;;;2.93;2.83;;;7.90;1.00;;;;;;5063456;28;20530;-81
2024/03/06 02:44:26;;;;;;;2.80;2.70;;;8.00;1.00;;;;;;5063739;28;20791;-81
2024/03/06 02:46:54;;;;;;;3.50;3.23;;;7.90;1.00;;;;;;5056054;28;20482;-79
2024/03/06 02:49:22;;;;;;;3.20;3.00;;;7.90;1.00;;;;;;5058701;28;20468;-80
2024/03/06 02:51:51;;;;;;;3.00;2.70;;;7.90;1.00;;;;;;5060052;28;20979;-79
2024/03/06 02:54:20;;;;;;;3.37;3.17;;;7.90;1.00;;;;;;5059011;28;20454;-79
2024/03/06 02:56:52;;;;;;;3.30;3.10;;;7.90;1.00;;;;;;5057016;28;20476;-79
2024/03/06 02:59:20;;;;;;;3.03;2.83;;;7.90;1.00;;;;;;5056701;28;20437;-81
2024/03/06 03:01:48;;;;;;;3.30;3.10;;;7.90;1.00;;;;;;5062355;28;20530;-83
2024/03/06 03:04:17;;;;;;;3.63;3.33;;;7.90;1.00;;;;;;5076148;28;20533;-83
2024/03/06 03:06:45;;;;;;;3.07;2.77;;;7.90;1.00;;;;;;5060058;28;20483;-81
2024/03/06 03:09:13;;;;;;;3.20;3.00;;;7.90;1.00;;;;;;5056303;28;20473;-81
2024/03/06 03:11:44;;;;;;;3.47;3.17;;;7.90;1.00;;;;;;5056361;28;20698;-79
2024/03/06 03:14:13;;;;;;;4.03;3.40;;;7.90;1.00;;;;;;5055820;28;21074;-78
2024/03/06 03:16:42;;;;;;;3.50;3.20;;;8.00;1.00;;;;;;5059276;28;20474;-80
2024/03/06 03:19:10;;;;;;;2.67;2.57;;;7.90;1.00;;;;;;5061377;28;21226;-82
2024/03/06 03:21:39;;;;;;;3.30;3.10;;;8.00;1.00;;;;;;5060523;28;20462;-83
2024/03/06 03:24:07;;;;;;;4.03;3.77;;;8.00;1.00;;;;;;5055959;28;20463;-81
2024/03/06 03:26:36;;;;;;;3.20;3.00;;;8.00;1.00;;;;;;5061246;28;20468;-80
2024/03/06 03:29:05;;;;;;;7.20;3.40;;;8.00;1.00;;;;;;5055815;28;20474;-80
2024/03/06 03:31:36;;;;;;;3.30;3.10;;;8.00;1.00;;;;;;5062081;28;21050;-82
2024/03/06 03:34:04;;;;;;;3.10;2.90;;;7.90;1.00;;;;;;5062479;28;20447;-80
2024/03/06 03:36:33;;;;;;;3.53;3.30;;;7.90;1.00;;;;;;5060889;28;20470;-79
2024/03/06 03:39:03;;;;;;;3.40;3.10;;;7.90;1.00;;;;;;5057046;28;20530;-82
2024/03/06 03:41:31;;;;;;;4.07;3.57;;;7.90;1.00;;;;;;5060659;28;20457;-81
2024/03/06 03:43:59;;;;;;;3.67;3.37;;;7.90;1.00;;;;;;5063694;28;20458;-81
2024/03/06 03:46:27;;;;;;;3.83;3.40;;;7.90;1.00;;;;;;5060242;28;20499;-82
2024/03/06 03:48:57;;;;;;;3.50;3.30;;;7.90;9.60;;;;;;5061663;28;20829;-81
2024/03/06 03:51:25;;;;;;;4.23;3.60;;;8.00;2.50;;;;;;5060525;28;20470;-80
2024/03/06 03:53:53;;;;;;;3.47;3.20;;;7.90;22.30;;;;;;5062536;28;20439;-79
2024/03/06 03:56:21;;;;;;;6.60;3.40;;;7.90;10.10;;;;;;5058585;28;21136;-80
2024/03/06 03:58:49;;;;;;;3.77;3.40;;;7.90;71.80;;;;;;5063448;28;20797;-80
2024/03/06 04:01:18;;;;;;;3.37;3.17;;;7.90;4.40;;;;;;5058078;28;20448;-83
2024/03/06 04:03:46;;;;;;;3.63;3.37;;;7.90;24.20;;;;;;5057713;28;20454;-80
2024/03/06 04:06:15;;;;;;;3.70;3.40;;;7.90;50.40;;;;;;5059240;28;20532;-80
2024/03/06 04:08:44;;;;;;;3.20;3.00;;;8.00;26.70;;;;;;5057308;28;20682;-81
2024/03/06 04:11:12;;;;;;;3.40;3.20;;;8.00;16.90;;;;;;5064584;28;20477;-80
2024/03/06 04:13:40;;;;;;;3.63;3.43;;;8.00;26.50;;;;;;5059852;28;20565;-81
2024/03/06 04:16:09;;;;;;;4.10;3.80;;;8.00;28.20;;;;;;5058702;28;20440;-81
2024/03/06 04:18:37;;;;;;;3.93;3.47;;;8.00;66.80;;;;;;5057927;28;21014;-80
2024/03/06 04:21:06;;;;;;;4.70;4.30;;;8.00;27.70;;;;;;5059264;28;20487;-81
2024/03/06 04:23:35;;;;;;;9.10;7.20;;;7.90;86.60;;;;;;5056478;28;20460;-79
2024/03/06 04:26:04;;;;;;;6.77;5.07;;;7.90;52.50;;;;;;5057842;28;20455;-82
2024/03/06 04:28:34;;;;;;;5.73;4.50;;;7.90;52.40;;;;;;5056389;28;20448;-81
2024/03/06 04:31:02;;;;;;;4.73;4.40;;;7.90;70.40;;;;;;5060503;28;20565;-78
2024/03/06 04:33:30;;;;;;;4.90;4.50;;;7.90;93.70;;;;;;5057986;28;20472;-82
2024/03/06 04:35:58;;;;;;;4.10;3.80;;;7.90;87.40;;;;;;5056624;28;20450;-81
2024/03/06 04:38:27;;;;;;;4.07;3.73;;;8.00;90.10;;;;;;5060403;28;20454;-80
2024/03/06 04:40:56;;;;;;;4.80;4.40;;;8.00;77.80;;;;;;5057045;28;20462;-82
2024/03/06 04:43:25;;;;;;;4.60;3.93;;;7.90;61.30;;;;;;5059118;28;20454;-83
2024/03/06 04:45:53;;;;;;;3.50;3.30;;;7.90;95.40;;;;;;5056753;28;20514;-82
2024/03/06 04:48:21;;;;;;;3.60;3.40;;;7.90;99.90;;;;;;5058111;28;20465;-84
2024/03/06 04:50:50;;;;;;;4.73;3.70;;;7.90;99.90;;;;;;5059403;28;20559;-83
2024/03/06 04:53:20;;;;;;;3.63;3.30;;;7.90;99.90;;;;;;5064054;28;20817;-83
2024/03/06 04:55:48;;;;;;;5.00;4.60;;;7.90;99.90;;;;;;5054879;28;21159;-83
2024/03/06 04:58:17;;;;;;;4.80;4.40;;;7.90;99.90;;;;;;5058554;28;20891;-82
2024/03/06 05:00:46;;;;;;;4.10;3.80;;;7.90;99.90;;;;;;5056833;28;20485;-81
2024/03/06 05:03:15;;;;;;;3.47;3.27;;;7.90;99.90;;;;;;5058620;28;20448;-81
2024/03/06 05:06:00;;;;;;;4.50;4.20;;;7.90;99.90;;;;;;5057117;28;20461;-81
2024/03/06 05:08:46;;;;;;;4.43;4.13;;;8.00;99.90;;;;;;5058170;28;20480;-81
2024/03/06 05:11:32;;;;;;;4.03;3.83;;;8.00;99.90;;;;;;5057993;28;20838;-80
2024/03/06 05:14:19;;;;;;;4.90;4.50;;;7.90;99.90;;;;;;5057445;28;20457;-79
2024/03/06 05:17:04;;;;;;;3.67;3.47;;;8.00;99.90;;;;;;5054411;28;20466;-81
2024/03/06 05:19:50;;;;;;;4.83;4.40;;;8.00;99.90;;;;;;5056221;28;20519;-80
2024/03/06 05:22:36;;;;;;;4.60;4.30;;;8.00;99.90;;;;;;5057103;28;20739;-82
2024/03/06 05:25:22;;;;;;;4.87;4.57;;;8.00;99.90;;;;;;5061541;28;20948;-79
2024/03/06 05:28:07;;;;;;;4.83;4.43;;;8.00;99.90;;;;;;5061432;28;20482;-80
2024/03/06 05:30:54;;;;;;;4.47;4.00;;;8.00;99.90;;;;;;5058678;28;20467;-79
2024/03/06 05:33:40;;;;;;;5.20;4.80;;;8.00;99.90;;;;;;5059119;28;20971;-81
2024/03/06 05:36:26;;;;;;;4.80;4.50;;;8.00;99.90;;;;;;5058383;28;20480;-81
2024/03/06 05:39:12;;;;;;;5.57;4.20;;;8.00;99.90;;;;;;5056956;28;20957;-80
2024/03/06 05:42:02;;;;;;;4.80;4.40;;;8.00;99.90;;;;;;5054334;28;21172;-80
2024/03/06 05:44:50;;;;;;;4.73;4.37;;;8.10;99.10;;;;;;5059186;28;20809;-80
2024/03/06 05:47:38;;;;;;;4.30;3.93;;;8.10;99.90;;;;;;5057619;28;20465;-77
2024/03/06 05:50:23;;;;;;;5.13;4.77;;;8.10;99.90;;;;;;5054690;28;20478;-79
2024/03/06 05:53:09;;;;;;;5.33;4.60;;;8.10;99.90;;;;;;5056286;28;21003;-80
2024/03/06 05:55:54;;;;;;;4.77;4.37;;;8.10;99.90;;;;;;5057785;28;20441;-79
2024/03/06 05:58:40;;;;;;;4.70;4.40;;;8.10;99.90;;;;;;5055991;28;20845;-78
2024/03/06 06:01:08;;;;;;;4.50;4.30;;;8.10;88.50;;;;;;5055569;28;20463;-79
2024/03/06 06:03:38;;;;;;;5.10;4.80;;;8.10;99.90;;;;;;5057518;28;20957;-77
2024/03/06 06:06:07;;;;;;;5.17;4.77;;;8.00;99.90;;;;;;5054819;28;20494;-80
2024/03/06 06:08:36;;;;;;;4.67;4.37;;;8.10;99.90;;;;;;5059604;28;20972;-78
2024/03/06 06:11:05;;;;;;;4.90;4.50;;;8.10;99.90;;;;;;5055391;28;20485;-79
2024/03/06 06:13:33;;;;;;;4.40;4.10;;;8.10;99.90;;;;;;5056944;28;20458;-79
2024/03/06 06:16:05;;;;;;;5.73;4.53;;;8.10;99.90;;;;;;5061254;28;20446;-78
2024/03/06 06:18:33;;;;;;;5.13;4.73;;;8.00;99.90;;;;;;5059754;28;20450;-77
2024/03/06 06:21:07;;;;;;;4.77;4.47;;;8.10;99.90;;;;;;5052522;28;20492;-78
2024/03/06 06:23:35;;;;;;;4.97;4.47;;;8.10;99.90;;;;;;5053395;28;21042;-78
2024/03/06 06:26:04;;;;;;;5.20;4.80;;;8.10;99.90;;;;;;5057684;28;20456;-78
2024/03/06 06:28:32;;;;;;;4.60;4.30;;;8.10;99.90;;;;;;5054853;28;20567;-79
2024/03/06 06:31:00;;;;;;;4.63;4.30;;;8.10;99.90;;;;;;5053317;28;20532;-80
2024/03/06 06:33:28;;;;;;;6.37;4.50;;;8.10;99.90;;;;;;5054892;28;20449;-78
2024/03/06 06:35:57;;;;;;;6.27;4.47;;;8.10;99.90;;;;;;5058987;28;20833;-77
2024/03/06 06:38:26;;;;;;;4.63;4.23;;;8.10;99.90;;;;;;5056940;28;21304;-77
2024/03/06 06:40:56;;;;;;;5.43;4.30;;;8.20;99.90;;;;;;5059870;28;20441;-78
2024/03/06 06:43:24;;;;;;;4.30;4.00;;;8.20;99.90;;;;;;5056543;28;20507;-78
2024/03/06 06:45:52;;;;;;;4.70;4.30;;;8.30;99.90;;;;;;5056996;28;20465;-79
2024/03/06 06:48:22;;;;;;;4.57;4.10;;;8.20;99.90;;;;;;5055658;28;21017;-80
2024/03/06 06:50:50;;;;;;;4.20;3.90;;;8.20;99.90;;;;;;5062048;28;20477;-78
2024/03/06 06:53:19;;;;;;;4.47;4.13;;;8.20;99.90;;;;;;5055912;28;20460;-80
2024/03/06 06:55:49;;;;;;;9.43;4.27;;;8.20;99.90;;;;;;5057483;28;20520;-79
2024/03/06 06:58:17;;;;;;;4.70;4.30;;;8.20;99.90;;;;;;5061478;28;20505;-80
2024/03/06 07:00:45;;;;;;;4.93;4.53;;;8.30;99.90;;;;;;5060656;28;20447;-78
2024/03/06 07:03:14;;;;;;;5.40;4.90;;;8.20;99.90;;;;;;5059977;28;20470;-81
2024/03/06 07:05:42;;;;;;;4.77;4.37;;;8.30;99.90;;;;;;5063438;28;20867;-78
2024/03/06 07:08:10;;;;;;;3.97;3.77;;;8.30;99.90;;;;;;5061155;28;20461;-78
2024/03/06 07:10:38;;;;;;;5.70;4.80;;;8.30;99.90;;;;;;5061413;28;20486;-77
2024/03/06 07:13:08;;;;;;;5.03;4.63;;;8.20;99.90;;;;;;5060004;28;20472;-77
2024/03/06 07:15:36;;;;;;;4.87;4.47;;;8.30;99.90;;;;;;5059799;28;20550;-80
2024/03/06 07:18:05;;;;;;;4.80;4.40;;;8.30;99.90;;;;;;5057325;28;20569;-78
2024/03/06 07:20:33;;;;;;;5.17;4.67;;;8.30;99.90;;;;;;5062379;28;20507;-79
2024/03/06 07:23:01;;;;;;;6.57;4.77;;;8.30;99.90;;;;;;5059743;28;20448;-80
2024/03/06 07:25:30;;;;;;;4.20;3.83;;;8.30;99.90;;;;;;5062858;28;20450;-78
2024/03/06 07:27:58;;;;;;;4.97;4.67;;;8.20;99.90;;;;;;5063808;28;20511;-79
2024/03/06 07:30:29;;;;;;;4.87;4.47;;;8.20;99.90;;;;;;5058245;28;20443;-79
2024/03/06 07:32:58;;;;;;;4.53;4.13;;;8.20;99.90;;;;;;5059122;28;20473;-79
2024/03/06 07:35:26;;;;;;;5.10;4.60;;;8.20;99.90;;;;;;5060216;28;20538;-81
2024/03/06 07:37:54;;;;;;;4.40;4.10;;;8.30;99.90;;;;;;5061128;28;20560;-80
2024/03/06 07:40:23;;;;;;;5.47;4.73;;;8.30;99.90;;;;;;5059613;28;20523;-78
2024/03/06 07:42:51;;;;;;;5.03;4.37;;;8.30;99.90;;;;;;5058526;28;20446;-80
2024/03/06 07:45:20;;;;;;;6.20;4.07;;;8.20;99.90;;;;;;5060890;28;20460;-79
2024/03/06 07:47:49;;;;;;;5.93;4.60;;;8.30;99.90;;;;;;5063127;28;20513;-78
2024/03/06 07:50:18;;;;;;;4.90;4.50;;;8.30;1.00;;;;;;5053647;28;20455;-79
2024/03/06 07:52:48;;;;;;;4.30;3.90;;;8.40;99.90;;;;;;5049339;28;20573;-79
2024/03/06 07:55:18;;;;;;;6.67;4.33;;;8.40;99.90;;;;;;5058078;28;20501;-80
2024/03/06 07:57:46;;;;;;;4.47;4.17;;;8.40;99.90;;;;;;5059326;28;20467;-78
2024/03/06 08:00:18;;;;;;;5.20;4.80;;;8.40;99.90;;;;;;5056619;28;20998;-81
2024/03/06 08:02:50;;;;;;;4.33;4.07;;;8.40;99.90;;;;;;5057977;28;20456;-79
2024/03/06 08:05:19;;;;;;;5.97;5.37;;;8.40;99.90;;;;;;5062050;28;20457;-80
2024/03/06 08:07:47;;;;;;;4.73;4.37;;;8.40;99.90;;;;;;5054436;28;20477;-80
2024/03/06 08:10:18;;;;;;;5.50;4.10;;;8.40;99.90;;;;;;5059829;28;20454;-78
2024/03/06 08:12:48;;;;;;;5.37;4.90;;;8.40;99.90;;;;;;5059116;28;20535;-77
2024/03/06 08:15:16;;;;;;;5.00;4.60;;;8.40;99.90;;;;;;5057005;28;20443;-81
2024/03/06 08:17:44;;;;;;;5.30;4.90;;;8.50;99.90;;;;;;5056434;28;20465;-78
2024/03/06 08:20:14;;;;;;;5.47;4.93;;;8.50;99.90;;;;;;5060074;28;20815;-79
2024/03/06 08:22:43;;;;;;;4.30;4.00;;;8.50;99.90;;;;;;5054750;28;20449;-78
2024/03/06 08:25:13;;;;;;;4.30;4.00;;;8.50;99.90;;;;;;5054615;28;20454;-80
2024/03/06 08:27:43;;;;;;;4.37;4.07;;;8.50;99.90;;;;;;5058555;28;20474;-78
2024/03/06 08:30:11;;;;;;;4.73;4.43;;;8.50;99.90;;;;;;5058866;28;20457;-79
2024/03/06 08:32:43;;;;;;;4.77;4.17;;;8.50;99.90;;;;;;5057915;28;20474;-78
2024/03/06 08:35:15;;;;;;;5.27;4.77;;;8.60;99.90;;;;;;5058711;28;20456;-80
2024/03/06 08:37:48;;;;;;;4.70;4.37;;;8.50;99.90;;;;;;5051244;28;20520;-79
2024/03/06 08:40:17;;;;;;;4.13;3.83;;;8.50;99.90;;;;;;5055285;28;21075;-79
2024/03/06 08:42:47;;;;;;;3.70;3.50;;;8.50;99.90;;;;;;5055181;28;20435;-79
2024/03/06 08:45:16;;;;;;;4.77;4.47;;;8.60;99.90;;;;;;5056136;28;20449;-78
2024/03/06 08:47:45;;;;;;;4.10;3.90;;;8.60;99.90;;;;;;5054522;28;20510;-80
2024/03/06 08:50:15;;;;;;;5.53;4.97;;;8.60;99.90;;;;;;5057634;28;20454;-79
2024/03/06 08:52:43;;;;;;;5.33;4.80;;;8.60;1.00;;;;;;5054824;28;20509;-78
2024/03/06 08:55:12;;;;;;;5.53;5.10;;;8.70;1.00;;;;;;5055970;28;20471;-83
2024/03/06 08:57:41;;;;;;;4.90;4.50;;;8.70;99.90;;;;;;5056165;28;20301;-77
2024/03/06 09:00:10;;;;;;;5.27;4.57;;;8.80;1.00;;;;;;5052514;28;20477;-79
2024/03/06 09:02:40;;;;;;;4.93;4.60;;;8.90;99.90;;;;;;5056242;28;20521;-77
2024/03/06 09:05:10;;;;;;;3.60;3.40;;;8.90;99.90;;;;;;5056102;28;20826;-81
2024/03/06 09:07:41;;;;;;;4.10;3.90;;;8.80;99.90;;;;;;5056325;28;20566;-75
2024/03/06 09:10:10;;;;;;;5.50;5.10;;;8.80;99.90;;;;;;5056133;28;20458;-79
2024/03/06 09:12:38;;;;;;;4.20;4.00;;;8.80;99.90;;;;;;5055105;28;20486;-78
2024/03/06 09:15:08;;;;;;;6.07;4.37;;;8.80;99.90;;;;;;5057161;28;20459;-80
2024/03/06 09:17:37;;;;;;;4.20;4.00;;;8.80;99.90;;;;;;5059757;28;20545;-79
2024/03/06 09:20:09;;;;;;;4.50;4.10;;;8.70;99.90;;;;;;5059281;28;20454;-78
2024/03/06 09:22:41;;;;;;;5.03;4.63;;;8.70;99.90;;;;;;5051876;28;20498;-76
2024/03/06 09:25:12;;;;;;;4.30;3.97;;;8.70;99.90;;;;;;5059483;28;20465;-79
2024/03/06 09:27:40;;;;;;;6.80;4.83;;;8.70;99.90;;;;;;5062858;28;20487;-79
2024/03/06 09:30:09;;;;;;;4.07;3.77;;;8.70;99.90;;;;;;5057796;28;20458;-79
2024/03/06 09:32:38;;;;;;;4.87;4.57;;;8.70;99.90;;;;;;5056075;28;20474;-80
2024/03/06 09:35:08;;;;;;;7.60;5.03;;;8.80;99.90;;;;;;5061260;28;20468;-78
2024/03/06 09:37:36;;;;;;;4.73;4.43;;;8.70;99.90;;;;;;5054859;28;20841;-78
2024/03/06 09:40:09;;;;;;;4.73;4.33;;;8.70;99.90;;;;;;5075087;28;20452;-80
2024/03/06 09:42:37;;;;;;;5.83;5.40;;;8.70;99.90;;;;;;5061021;28;20446;-79
2024/03/06 09:45:07;;;;;;;5.07;4.67;;;8.80;99.90;;;;;;5057199;28;20475;-79
2024/03/06 09:47:37;;;;;;;5.70;5.40;;;8.80;99.90;;;;;;5058713;28;20515;-78
2024/03/06 09:50:10;;;;;;;5.13;4.83;;;8.80;99.90;;;;;;5056314;28;20595;-79
2024/03/06 09:52:43;;;;;;;6.00;5.67;;;8.70;99.90;;;;;;5057192;28;20508;-79
2024/03/06 09:55:15;;;;;;;7.90;5.00;;;8.70;99.90;;;;;;5059386;28;20532;-79
2024/03/06 09:57:43;;;;;;;5.90;5.30;;;8.70;1.00;;;;;;5054943;28;20571;-77
2024/03/06 10:00:52;;;;;;;5.37;4.90;;;8.80;1.00;;;;;;5055476;28;20455;-80
2024/03/06 10:03:21;;;;;;;5.80;5.40;;;8.80;1.00;;;;;;5058475;28;21080;-77
2024/03/06 10:06:42;;;;;;;6.93;5.50;;;8.80;1.00;;;;;;5051305;28;21033;-84
2024/03/06 10:09:11;;;;;;;6.40;6.00;;;8.80;1.00;;;;;;5057486;28;20455;-78
2024/03/06 10:11:42;;;;;;;6.33;5.83;;;8.90;1.00;;;;;;5051312;28;20455;-77
2024/03/06 10:15:00;;;;;;;6.13;5.70;;;8.90;1.00;;;;;;5056541;28;20517;-78
2024/03/06 10:17:28;;;;;;;6.90;6.30;;;8.90;1.00;;;;;;5058393;28;20473;-78
2024/03/06 10:20:01;;;;;;;7.67;6.77;;;8.90;99.90;;;;;;5056270;28;20477;-79
2024/03/06 10:33:53;;;;;;;5.60;5.20;;;8.90;99.90;;;;;;5058123;28;20468;-79
2024/03/06 10:36:22;;;;;;;7.33;6.70;;;8.90;99.90;;;;;;5061872;28;20468;-79
2024/03/06 10:38:53;;;;;;;7.37;6.67;;;8.80;99.90;;;;;;5060254;28;20460;-78
2024/03/06 10:41:25;;;;;;;8.13;7.53;;;8.90;99.90;;;;;;5058449;28;20457;-79
2024/03/06 10:43:55;;;;;;;7.80;7.10;;;8.80;99.90;;;;;;5059695;28;20443;-79
2024/03/06 10:46:24;;;;;;;8.20;7.40;;;8.90;99.90;;;;;;5061411;28;20973;-77
2024/03/06 10:48:58;;;;;;;8.53;7.90;;;8.90;99.90;;;;;;5060199;28;20453;-82
2024/03/06 10:51:29;;;;;;;8.27;7.47;;;8.80;99.90;;;;;;5061455;28;20495;-79
2024/03/06 10:54:00;;;;;;;9.33;8.63;;;8.90;99.90;;;;;;5055652;28;20478;-77
2024/03/06 10:56:28;;;;;;;9.57;8.87;;;8.90;99.90;;;;;;5060569;28;20504;-79
2024/03/06 10:58:58;;;;;;;9.03;8.23;;;8.90;99.90;;;;;;5057357;28;20478;-80
2024/03/06 11:01:28;;;;;;;9.60;8.77;;;8.90;99.90;;;;;;5057167;28;21016;-79
2024/03/06 11:03:59;;;;;;;9.90;9.07;;;8.90;99.90;;;;;;5059085;28;20466;-81
2024/03/06 11:06:27;;;;;;;11.07;9.50;;;9.00;99.90;;;;;;5059058;28;20465;-77
2024/03/06 11:08:56;;;;;;;13.10;9.57;;;9.00;99.90;;;;;;5057570;28;20636;-80
2024/03/06 11:11:25;;;;;;;10.40;9.60;;;9.00;1.00;;;;;;5057681;28;20525;-78
2024/03/06 11:13:57;;;;;;;10.90;9.97;;;9.00;1.00;;;;;;5062927;28;20464;-78
2024/03/06 11:16:33;;;;;;;12.27;8.97;;;9.00;99.90;;;;;;5058329;28;20905;-77
2024/03/06 11:19:09;;;;;;;10.27;9.37;;;9.00;99.90;;;;;;5056537;28;20463;-80
2024/03/06 11:21:47;;;;;;;12.10;11.00;;;9.00;99.90;;;;;;5057822;28;20458;-79
2024/03/06 11:24:20;;;;;;;11.57;9.67;;;9.00;99.90;;;;;;5053825;28;20462;-77
2024/03/06 11:27:07;;;;;;;14.63;11.00;;;8.90;99.90;;;;;;5056900;28;20478;-81
2024/03/06 11:30:04;;;;;;;10.80;9.93;;;9.00;99.90;;;;;;5059031;28;21016;-78
2024/03/06 11:32:38;;;;;;;13.13;11.93;;;9.00;1.00;;;;;;5057370;28;20461;-78
2024/03/06 11:35:08;;;;;;;11.80;10.80;;;9.00;1.00;;;;;;5058070;28;20481;-79
2024/03/06 11:37:38;;;;;;;13.40;11.37;;;9.10;99.90;;;;;;5058087;28;20570;-77
2024/03/06 11:40:11;;;;;;;11.60;10.40;;;9.00;1.00;;;;;;5054441;28;20538;-78
2024/03/06 11:42:39;;;;;;;13.80;12.30;;;9.10;1.00;;;;;;5055012;28;20500;-80
2024/03/06 11:45:16;;;;;;;13.43;12.10;;;9.00;1.00;;;;;;5055799;28;20435;-78
2024/03/06 11:47:58;;;;;;;15.47;13.07;;;9.00;1.00;;;;;;5055230;28;20563;-79
2024/03/06 11:50:30;;;;;;;14.03;12.57;;;9.00;99.90;;;;;;5061216;28;20836;-82
2024/03/06 11:52:58;;;;;;;15.03;11.77;;;8.90;1.00;;;;;;5055515;28;20449;-77
2024/03/06 11:55:27;;;;;;;14.20;12.03;;;8.90;1.00;;;;;;5060881;28;20536;-77
2024/03/06 11:57:55;;;;;;;12.30;11.10;;;8.90;1.00;;;;;;5055680;28;20488;-78
2024/03/06 12:00:23;;;;;;;12.90;11.60;;;8.90;1.00;;;;;;5057117;28;20455;-80
2024/03/06 12:02:52;;;;;;;13.93;12.53;;;8.90;1.00;;;;;;5058942;28;20554;-79
2024/03/06 12:05:20;;;;;;;13.60;12.17;;;8.90;1.00;;;;;;5051509;28;20461;-81
2024/03/06 12:07:51;;;;;;;12.20;10.93;;;8.90;1.00;;;;;;5047310;28;20598;-80
2024/03/06 12:10:19;;;;;;;13.27;12.00;;;8.90;1.00;;;;;;5052213;28;20439;-81
2024/03/06 12:12:48;;;;;;;12.40;11.10;;;8.90;1.00;;;;;;5053844;28;20455;-79
2024/03/06 12:15:18;;;;;;;13.07;11.57;;;8.90;99.90;;;;;;5055105;28;20475;-80
2024/03/06 12:17:50;;;;;;;13.60;12.17;;;8.90;99.90;;;;;;5050438;28;20569;-79
2024/03/06 12:20:19;;;;;;;13.00;11.70;;;8.90;99.90;;;;;;5053135;28;20451;-78
2024/03/06 12:22:52;;;;;;;14.27;11.77;;;8.90;1.00;;;;;;5054121;28;20454;-77
2024/03/06 12:25:22;;;;;;;14.13;12.73;;;8.90;1.00;;;;;;5052826;28;20488;-78
2024/03/06 12:27:51;;;;;;;13.50;12.20;;;9.00;1.00;;;;;;5054038;28;20474;-78
2024/03/06 12:30:20;;;;;;;15.30;11.93;;;9.00;1.00;;;;;;5054221;28;20547;-81
2024/03/06 12:32:57;;;;;;;13.20;11.87;;;9.00;1.00;;;;;;5054841;28;20453;-78
2024/03/06 12:35:26;;;;;;;13.60;12.33;;;9.10;1.00;;;;;;5052993;28;20463;-79
2024/03/06 12:37:56;;;;;;;15.53;12.10;;;9.10;1.00;;;;;;5050110;28;20478;-79
2024/03/06 12:40:24;;;;;;;15.70;12.80;;;9.00;1.00;;;;;;5058031;28;20469;-80
2024/03/06 12:42:53;;;;;;;13.73;11.90;;;9.00;1.00;;;;;;5048726;28;20462;-79
2024/03/06 12:45:21;;;;;;;13.30;11.90;;;9.00;1.00;;;;;;5052931;28;20459;-80
2024/03/06 12:47:50;;;;;;;13.80;12.50;;;9.10;1.00;;;;;;5052585;28;20486;-77
2024/03/06 12:50:20;;;;;;;13.33;11.63;;;9.10;1.00;;;;;;5055627;28;20457;-81
2024/03/06 12:52:48;;;;;;;14.00;12.50;;;9.10;99.90;;;;;;5054100;28;20483;-78
2024/03/06 12:55:18;;;;;;;15.07;12.90;;;9.00;1.00;;;;;;5060417;28;20505;-78
2024/03/06 12:57:47;;;;;;;13.10;11.77;;;9.00;1.00;;;;;;5057454;28;20530;-78
2024/03/06 13:00:16;;;;;;;13.97;12.57;;;9.10;1.00;;;;;;5056848;28;20464;-79
2024/03/06 13:02:44;;;;;;;13.47;12.10;;;9.00;1.00;;;;;;5053509;28;20454;-77
2024/03/06 13:05:13;;;;;;;14.10;12.60;;;9.10;1.00;;;;;;5056019;28;20923;-79
2024/03/06 13:07:43;;;;;;;12.40;11.07;;;9.00;1.00;;;;;;5058812;28;20478;-77
2024/03/06 13:10:12;;;;;;;13.17;11.50;;;9.10;1.00;;;;;;5058608;28;21117;-79
2024/03/06 13:12:42;;;;;;;13.07;11.80;;;9.10;1.00;;;;;;5055927;28;20501;-76
2024/03/06 13:15:10;;;;;;;14.20;12.90;;;9.20;1.00;;;;;;5055751;28;20482;-78
2024/03/06 13:17:39;;;;;;;12.77;11.47;;;9.10;1.00;;;;;;5053895;28;21000;-76
2024/03/06 13:20:11;;;;;;;12.40;11.20;;;9.10;1.00;;;;;;5058476;28;20447;-78
2024/03/06 13:22:40;;;;;;;12.40;11.20;;;9.10;1.00;;;;;;5060162;28;20542;-77
2024/03/06 13:25:09;;;;;;;12.57;11.33;;;9.10;1.00;;;;;;5052157;28;20446;-77
2024/03/06 13:27:38;;;;;;;13.67;12.23;;;9.10;99.90;;;;;;5055425;28;20481;-77